createdAt,value
2023-04-28T00:01:38.148Z,6.88
2023-04-28T00:04:05.371Z,6.32
2023-04-28T00:06:32.156Z,8.45
2023-04-28T00:08:58.711Z,7.22
2023-04-28T00:11:25.467Z,8.60
2023-04-28T00:13:52.008Z,6.30
2023-04-28T00:16:18.469Z,7.20
2023-04-28T00:18:44.994Z,8.40
2023-04-28T00:21:11.488Z,5.95
2023-04-28T00:23:38.031Z,6.78
2023-04-28T00:26:04.573Z,5.95
2023-04-28T00:28:34.570Z,6.90
2023-04-28T00:31:02.063Z,6.10
2023-04-28T00:33:28.572Z,6.07
2023-04-28T00:36:01.610Z,7.25
2023-04-28T00:38:28.440Z,6.50
2023-04-28T00:40:55.073Z,5.55
2023-04-28T00:43:21.662Z,6.70
2023-04-28T00:45:52.885Z,6.55
2023-04-28T00:48:25.227Z,6.95
2023-04-28T00:50:52.059Z,7.60
2023-04-28T00:53:18.779Z,6.72
2023-04-28T00:55:47.048Z,6.35
2023-04-28T00:58:13.788Z,6.72
2023-04-28T01:00:40.656Z,6.28
2023-04-28T01:03:08.091Z,6.95
2023-04-28T01:05:36.558Z,6.97
2023-04-28T01:08:03.136Z,6.85
2023-04-28T01:10:29.629Z,7.25
2023-04-28T01:12:56.151Z,8.10
2023-04-28T01:15:22.665Z,7.70
2023-04-28T01:17:49.425Z,6.63
2023-04-28T01:20:16.006Z,6.50
2023-04-28T01:22:42.548Z,7.70
2023-04-28T01:25:09.165Z,6.53
2023-04-28T01:27:35.807Z,5.80
2023-04-28T01:30:03.504Z,6.88
2023-04-28T01:32:30.095Z,8.60
2023-04-28T01:34:56.607Z,6.32
2023-04-28T01:37:23.361Z,9.20
2023-04-28T01:39:49.823Z,7.40
2023-04-28T01:42:16.354Z,7.75
2023-04-28T01:44:42.877Z,8.00
2023-04-28T01:47:09.498Z,7.13
2023-04-28T01:49:36.064Z,7.22
2023-04-28T01:52:02.576Z,7.85
2023-04-28T01:54:29.396Z,8.50
2023-04-28T01:56:55.976Z,6.63
2023-04-28T01:59:22.570Z,7.93
2023-04-28T02:01:49.630Z,9.25
2023-04-28T02:04:16.390Z,7.03
2023-04-28T02:06:43.210Z,8.65
2023-04-28T02:09:09.747Z,6.47
2023-04-28T02:11:36.291Z,6.28
2023-04-28T02:14:02.820Z,7.18
2023-04-28T02:16:29.425Z,6.63
2023-04-28T02:18:56.977Z,9.13
2023-04-28T02:21:23.538Z,6.75
2023-04-28T02:23:50.641Z,6.65
2023-04-28T02:26:17.326Z,7.15
2023-04-28T02:28:43.980Z,5.88
2023-04-28T02:31:11.806Z,6.05
2023-04-28T02:33:38.910Z,6.05
2023-04-28T02:36:06.701Z,7.50
2023-04-28T02:38:33.474Z,8.05
2023-04-28T02:41:05.975Z,7.07
2023-04-28T02:43:33.371Z,6.45
2023-04-28T02:46:01.348Z,7.90
2023-04-28T02:48:28.022Z,8.05
2023-04-28T02:50:54.578Z,7.65
2023-04-28T02:53:21.936Z,6.35
2023-04-28T02:55:48.848Z,8.35
2023-04-28T02:58:16.181Z,6.50
2023-04-28T03:00:43.101Z,7.97
2023-04-28T03:03:09.675Z,6.18
2023-04-28T03:05:36.431Z,6.07
2023-04-28T03:08:02.965Z,7.50
2023-04-28T03:10:29.470Z,8.07
2023-04-28T03:12:57.044Z,7.13
2023-04-28T03:15:23.795Z,6.63
2023-04-28T03:17:50.520Z,8.38
2023-04-28T03:20:17.418Z,9.13
2023-04-28T03:22:44.011Z,6.78
2023-04-28T03:25:10.605Z,7.40
2023-04-28T03:27:38.109Z,8.00
2023-04-28T03:30:05.589Z,6.63
2023-04-28T03:32:32.369Z,6.90
2023-04-28T03:34:58.870Z,6.75
2023-04-28T03:37:25.457Z,6.95
2023-04-28T03:39:52.008Z,7.18
2023-04-28T03:42:18.532Z,6.85
2023-04-28T03:45:16.777Z,7.47
2023-04-28T03:48:27.980Z,9.15
2023-04-28T03:50:54.514Z,5.45
2023-04-28T03:53:21.122Z,5.75
2023-04-28T03:55:47.733Z,7.30
2023-04-28T03:58:14.440Z,8.27
2023-04-28T04:00:41.318Z,6.80
2023-04-28T04:03:08.276Z,7.07
2023-04-28T04:05:34.967Z,7.82
2023-04-28T04:08:02.251Z,6.20
2023-04-28T04:10:28.746Z,8.07
2023-04-28T04:12:55.600Z,7.80
2023-04-28T04:15:22.102Z,8.02
2023-04-28T04:17:48.716Z,6.85
2023-04-28T04:20:15.428Z,6.78
2023-04-28T04:22:41.926Z,5.85
2023-04-28T04:25:08.869Z,7.03
2023-04-28T04:27:35.498Z,6.40
2023-04-28T04:30:02.164Z,6.45
2023-04-28T04:32:28.765Z,7.35
2023-04-28T04:34:55.917Z,7.70
2023-04-28T04:37:23.007Z,7.35
2023-04-28T04:39:49.500Z,8.20
2023-04-28T04:42:24.201Z,6.80
2023-04-28T04:44:52.342Z,7.13
2023-04-28T04:47:19.183Z,7.45
2023-04-28T04:49:45.679Z,8.25
2023-04-28T04:52:12.323Z,6.22
2023-04-28T04:54:38.785Z,6.20
2023-04-28T04:57:05.515Z,8.98
2023-04-28T04:59:32.265Z,6.45
2023-04-28T05:01:58.823Z,7.15
2023-04-28T05:04:25.422Z,7.60
2023-04-28T05:06:52.736Z,12.98
2023-04-28T05:09:19.331Z,10.38
2023-04-28T05:11:46.975Z,8.55
2023-04-28T05:14:13.417Z,8.00
2023-04-28T05:16:40.076Z,8.40
2023-04-28T05:19:06.640Z,7.78
2023-04-28T05:21:33.216Z,7.63
2023-04-28T05:24:00.053Z,6.65
2023-04-28T05:26:26.779Z,8.82
2023-04-28T05:28:53.332Z,12.55
2023-04-28T05:31:19.888Z,20.25
2023-04-28T05:33:46.461Z,10.95
2023-04-28T05:36:13.438Z,8.25
2023-04-28T05:38:40.289Z,8.27
2023-04-28T05:41:07.770Z,6.88
2023-04-28T05:43:34.284Z,7.57
2023-04-28T05:46:01.386Z,8.77
2023-04-28T05:48:27.981Z,6.38
2023-04-28T05:50:54.487Z,8.20
2023-04-28T05:53:21.030Z,7.50
2023-04-28T05:55:48.245Z,8.93
2023-04-28T05:58:14.828Z,9.32
2023-04-28T06:00:41.446Z,8.48
2023-04-28T06:03:11.307Z,8.18
2023-04-28T06:05:38.250Z,6.78
2023-04-28T06:08:05.115Z,8.13
2023-04-28T06:10:31.867Z,6.43
2023-04-28T06:12:58.333Z,7.40
2023-04-28T06:15:24.888Z,8.07
2023-04-28T06:17:51.772Z,9.82
2023-04-28T06:20:18.498Z,8.30
2023-04-28T06:23:13.435Z,7.65
2023-04-28T06:25:39.957Z,7.97
2023-04-28T06:28:08.035Z,7.72
2023-04-28T06:30:34.991Z,7.35
2023-04-28T06:33:02.110Z,8.35
2023-04-28T06:35:28.614Z,8.13
2023-04-28T06:37:55.118Z,6.32
2023-04-28T06:40:22.640Z,8.60
2023-04-28T06:42:49.164Z,7.90
2023-04-28T06:45:15.814Z,7.45
2023-04-28T06:47:42.944Z,9.10
2023-04-28T06:50:10.471Z,8.70
2023-04-28T06:52:41.152Z,7.55
2023-04-28T06:55:09.479Z,7.95
2023-04-28T06:57:37.853Z,8.32
2023-04-28T07:00:04.850Z,7.75
2023-04-28T07:02:31.729Z,7.78
2023-04-28T07:04:58.356Z,9.02
2023-04-28T07:07:24.801Z,8.80
2023-04-28T07:09:53.275Z,8.32
2023-04-28T07:12:20.887Z,9.25
2023-04-28T07:14:47.426Z,9.40
2023-04-28T07:17:13.993Z,9.02
2023-04-28T07:19:41.045Z,8.48
2023-04-28T07:22:07.557Z,7.93
2023-04-28T07:24:34.310Z,8.27
2023-04-28T07:27:01.997Z,8.18
2023-04-28T07:29:33.986Z,7.90
2023-04-28T07:32:06.846Z,8.93
2023-04-28T07:34:35.773Z,8.20
2023-04-28T07:37:02.960Z,9.00
2023-04-28T07:39:31.541Z,10.40
2023-04-28T07:41:59.045Z,10.10
2023-04-28T07:44:25.859Z,12.80
2023-04-28T07:46:53.599Z,9.38
2023-04-28T07:49:20.513Z,9.65
2023-04-28T07:51:47.333Z,8.40
2023-04-28T07:54:13.829Z,9.00
2023-04-28T07:56:40.476Z,11.27
2023-04-28T07:59:07.008Z,9.27
2023-04-28T08:01:33.553Z,9.68
2023-04-28T08:04:00.270Z,7.90
2023-04-28T08:06:27.060Z,8.77
2023-04-28T08:08:53.562Z,9.75
2023-04-28T08:11:21.219Z,8.23
2023-04-28T08:13:48.247Z,8.57
2023-04-28T08:16:15.403Z,8.25
2023-04-28T08:18:42.410Z,8.10
2023-04-28T08:21:09.932Z,9.57
2023-04-28T08:23:36.693Z,8.35
2023-04-28T08:26:04.435Z,9.48
2023-04-28T08:28:31.460Z,10.75
2023-04-28T08:30:58.840Z,8.38
2023-04-28T08:33:26.949Z,9.57
2023-04-28T08:35:53.734Z,9.85
2023-04-28T08:38:25.613Z,10.07
2023-04-28T08:40:52.229Z,12.20
2023-04-28T08:43:21.355Z,10.13
2023-04-28T08:45:48.225Z,9.98
2023-04-28T08:48:23.065Z,8.68
2023-04-28T08:50:52.993Z,10.10
2023-04-28T08:54:26.487Z,9.73
2023-04-28T09:22:24.857Z,10.57
2023-04-28T09:25:12.499Z,9.52
2023-04-28T09:27:39.054Z,9.70
2023-04-28T09:30:47.286Z,9.57
2023-04-28T09:33:36.809Z,9.38
2023-04-28T09:36:03.666Z,12.70
2023-04-28T09:38:44.083Z,10.43
2023-04-28T09:41:10.669Z,11.23
2023-04-28T09:43:37.311Z,10.00
2023-04-28T09:46:05.548Z,10.63
2023-04-28T09:48:32.392Z,11.45
2023-04-28T09:51:00.829Z,9.05
2023-04-28T09:53:28.500Z,9.23
2023-04-28T09:56:15.180Z,10.43
2023-04-28T09:58:48.196Z,11.20
2023-04-28T10:01:15.392Z,10.35
2023-04-28T10:03:43.224Z,10.32
2023-04-28T10:06:12.400Z,12.93
2023-04-28T10:08:43.265Z,9.23
2023-04-28T10:11:10.387Z,10.82
2023-04-28T10:13:45.129Z,11.15
2023-04-28T10:16:36.461Z,11.07
2023-04-28T10:19:03.397Z,10.85
2023-04-28T10:21:33.575Z,11.88
2023-04-28T10:24:42.621Z,9.90
2023-04-28T10:27:10.140Z,10.23
2023-04-28T10:29:43.083Z,10.40
2023-04-28T10:32:21.339Z,11.40
2023-04-28T10:34:48.650Z,11.63
2023-04-28T10:37:16.096Z,12.00
2023-04-28T10:40:21.105Z,12.00
2023-04-28T10:42:57.120Z,12.07
2023-04-28T10:46:02.412Z,11.13
2023-04-28T10:48:29.491Z,11.40
2023-04-28T10:51:16.642Z,9.43
2023-04-28T10:54:14.897Z,10.23
2023-04-28T10:57:02.672Z,9.77
2023-04-28T10:59:35.219Z,9.63
2023-04-28T11:02:41.739Z,10.70
2023-04-28T11:05:14.789Z,10.10
2023-04-28T11:08:32.080Z,12.07
2023-04-28T11:11:15.723Z,10.65
2023-04-28T11:13:43.583Z,10.57
2023-04-28T11:16:10.161Z,10.65
2023-04-28T11:19:05.533Z,12.63
2023-04-28T11:21:33.197Z,10.90
2023-04-28T11:24:00.042Z,10.48
2023-04-28T11:26:27.703Z,11.68
2023-04-28T11:28:58.573Z,9.68
2023-04-28T11:31:26.658Z,9.73
2023-04-28T11:33:55.507Z,8.57
2023-04-28T11:36:25.544Z,8.85
2023-04-28T11:38:52.266Z,10.18
2023-04-28T11:41:19.009Z,9.75
2023-04-28T11:43:47.665Z,12.90
2023-04-28T11:46:29.323Z,10.13
2023-04-28T11:49:04.830Z,11.48
2023-04-28T11:51:32.882Z,13.23
2023-04-28T11:54:00.874Z,13.30
2023-04-28T11:56:39.908Z,11.55
2023-04-28T11:59:14.219Z,12.23
2023-04-28T12:01:52.503Z,10.70
2023-04-28T12:04:39.011Z,10.95
2023-04-28T12:07:12.015Z,9.98
2023-04-28T12:10:12.853Z,10.52
2023-04-28T12:12:50.964Z,12.90
2023-04-28T12:15:20.816Z,10.48
2023-04-28T12:17:52.789Z,11.75
2023-04-28T12:20:56.251Z,14.77
2023-04-28T12:23:32.801Z,12.98
2023-04-28T12:26:01.512Z,11.80
2023-04-28T12:28:44.953Z,14.98
2023-04-28T12:31:19.698Z,16.08
2023-04-28T12:34:05.859Z,14.48
2023-04-28T12:36:32.426Z,16.10
2023-04-28T12:39:04.121Z,14.50
2023-04-28T12:43:57.570Z,15.70
2023-04-28T12:46:24.509Z,14.55
2023-04-28T12:48:51.209Z,14.50
2023-04-28T12:51:18.056Z,14.20
2023-04-28T12:53:44.609Z,16.52
2023-04-28T12:56:11.188Z,14.35
2023-04-28T12:58:38.087Z,13.98
2023-04-28T13:01:05.766Z,15.80
2023-04-28T13:03:32.516Z,15.30
2023-04-28T13:06:13.792Z,14.98
2023-04-28T13:08:40.524Z,13.73
2023-04-28T13:11:28.742Z,16.00
2023-04-28T13:13:57.058Z,13.32
2023-04-28T13:16:29.422Z,13.48
2023-04-28T13:18:57.861Z,13.55
2023-04-28T13:21:27.529Z,13.95
2023-04-28T13:23:56.128Z,12.02
2023-04-28T13:26:25.969Z,13.68
2023-04-28T13:28:52.746Z,11.32
2023-04-28T13:31:20.083Z,13.60
2023-04-28T13:33:46.730Z,13.40
2023-04-28T13:36:13.632Z,12.80
2023-04-28T13:38:40.157Z,12.10
2023-04-28T13:41:07.548Z,15.25
2023-04-28T13:43:34.211Z,12.90
2023-04-28T13:46:01.801Z,13.52
2023-04-28T13:48:29.353Z,11.82
2023-04-28T13:50:55.960Z,14.27
2023-04-28T13:53:22.803Z,13.88
2023-04-28T13:55:51.139Z,11.95
2023-04-28T13:58:18.663Z,12.55
2023-04-28T14:00:45.228Z,12.63
2023-04-28T14:03:13.826Z,12.50
2023-04-28T14:05:48.847Z,12.05
2023-04-28T14:08:18.240Z,10.93
2023-04-28T14:10:47.294Z,13.10
2023-04-28T14:13:14.219Z,11.25
2023-04-28T14:15:51.190Z,12.05
2023-04-28T14:18:28.652Z,14.02
2023-04-28T14:20:55.847Z,12.93
2023-04-28T14:23:23.205Z,13.02
2023-04-28T14:25:50.420Z,12.93
2023-04-28T14:28:17.573Z,12.68
2023-04-28T14:30:44.310Z,11.38
2023-04-28T14:33:10.933Z,13.90
2023-04-28T14:35:37.606Z,13.95
2023-04-28T14:38:05.039Z,12.85
2023-04-28T14:40:31.709Z,11.05
2023-04-28T14:42:58.214Z,11.73
2023-04-28T14:45:25.016Z,14.48
2023-04-28T14:47:53.001Z,14.20
2023-04-28T14:50:19.581Z,13.82
2023-04-28T14:52:46.174Z,13.77
2023-04-28T14:55:13.788Z,15.93
2023-04-28T14:57:40.656Z,15.10
2023-04-28T15:00:08.177Z,13.82
2023-04-28T15:02:36.016Z,14.02
2023-04-28T15:05:03.377Z,17.17
2023-04-28T15:07:31.852Z,15.90
2023-04-28T15:10:01.309Z,13.68
2023-04-28T15:12:30.485Z,13.63
2023-04-28T15:14:57.643Z,13.18
2023-04-28T15:17:24.593Z,12.90
2023-04-28T15:19:51.273Z,15.65
2023-04-28T15:22:22.501Z,14.20
2023-04-28T15:24:51.517Z,14.05
2023-04-28T15:27:18.111Z,14.77
2023-04-28T15:29:44.815Z,15.77
2023-04-28T15:32:11.862Z,13.50
2023-04-28T15:34:38.446Z,14.02
2023-04-28T15:37:29.196Z,15.95
2023-04-28T15:42:23.676Z,13.63
2023-04-28T15:44:50.511Z,14.30
2023-04-28T15:47:17.720Z,12.77
2023-04-28T15:49:44.263Z,12.07
2023-04-28T15:52:11.458Z,11.25
2023-04-28T15:54:39.624Z,16.58
2023-04-28T15:57:06.595Z,13.77
2023-04-28T15:59:33.557Z,14.73
2023-04-28T16:02:00.186Z,13.95
2023-04-28T16:04:26.828Z,15.95
2023-04-28T16:06:55.159Z,13.65
2023-04-28T16:09:21.711Z,13.30
2023-04-28T16:11:48.608Z,13.52
2023-04-28T16:14:15.509Z,17.48
2023-04-28T16:16:42.304Z,12.98
2023-04-28T16:19:08.976Z,12.60
2023-04-28T16:21:35.516Z,15.98
2023-04-28T16:24:02.967Z,18.77
2023-04-28T16:26:29.650Z,14.10
2023-04-28T16:28:56.434Z,14.90
2023-04-28T16:31:23.964Z,16.58
2023-04-28T16:33:50.599Z,17.50
2023-04-28T16:36:17.130Z,18.77
2023-04-28T16:38:45.729Z,16.33
2023-04-28T16:41:12.928Z,16.02
2023-04-28T16:43:39.459Z,13.52
2023-04-28T16:46:07.622Z,17.00
2023-04-28T16:48:34.517Z,17.05
2023-04-28T16:51:01.086Z,17.17
2023-04-28T16:53:27.761Z,17.27
2023-04-28T16:55:54.285Z,16.17
2023-04-28T16:58:20.786Z,17.48
2023-04-28T17:00:47.330Z,14.70
2023-04-28T17:03:14.005Z,14.05
2023-04-28T17:05:40.652Z,15.43
2023-04-28T17:08:07.191Z,16.38
2023-04-28T17:10:37.514Z,16.20
2023-04-28T17:13:04.253Z,15.07
2023-04-28T17:15:31.200Z,12.82
2023-04-28T17:17:57.911Z,13.80
2023-04-28T17:20:24.619Z,14.63
2023-04-28T17:22:51.462Z,13.98
2023-04-28T17:25:18.528Z,13.25
2023-04-28T17:27:45.100Z,13.88
2023-04-28T17:30:11.923Z,12.02
2023-04-28T17:32:38.561Z,11.38
2023-04-28T17:35:06.011Z,14.32
2023-04-28T17:37:34.081Z,14.93
2023-04-28T17:40:01.971Z,12.43
2023-04-28T17:42:31.893Z,12.10
2023-04-28T17:44:58.930Z,13.85
2023-04-28T17:47:25.743Z,11.93
2023-04-28T17:49:52.419Z,12.95
2023-04-28T17:52:18.930Z,15.10
2023-04-28T17:54:45.574Z,14.90
2023-04-28T17:57:13.015Z,16.38
2023-04-28T17:59:40.623Z,17.40
2023-04-28T18:02:10.610Z,19.17
2023-04-28T18:04:37.883Z,20.05
2023-04-28T18:07:06.451Z,18.80
2023-04-28T18:09:33.641Z,16.90
2023-04-28T18:12:03.122Z,18.80
2023-04-28T18:14:29.971Z,19.30
2023-04-28T18:16:58.315Z,19.02
2023-04-28T18:19:28.716Z,16.83
2023-04-28T18:21:56.858Z,20.77
2023-04-28T18:24:24.350Z,19.15
2023-04-28T18:26:50.942Z,18.05
2023-04-28T18:29:19.167Z,18.40
2023-04-28T18:31:46.451Z,23.50
2023-04-28T18:34:13.402Z,19.55
2023-04-28T18:36:40.143Z,14.25
2023-04-28T18:39:08.964Z,14.20
2023-04-28T18:41:36.467Z,14.25
2023-04-28T18:44:03.102Z,14.75
2023-04-28T18:46:30.017Z,12.90
2023-04-28T18:48:57.246Z,14.02
2023-04-28T18:51:23.910Z,14.45
2023-04-28T18:53:50.564Z,17.40
2023-04-28T18:56:17.289Z,14.65
2023-04-28T18:58:43.825Z,17.02
2023-04-28T19:01:17.804Z,18.20
2023-04-28T19:03:44.985Z,14.70
2023-04-28T19:06:12.064Z,11.80
2023-04-28T19:08:39.243Z,15.65
2023-04-28T19:11:07.364Z,17.58
2023-04-28T19:13:34.939Z,15.88
2023-04-28T19:16:02.190Z,15.15
2023-04-28T19:18:30.727Z,13.40
2023-04-28T19:21:01.243Z,14.82
2023-04-28T19:23:28.521Z,14.05
2023-04-28T19:25:56.984Z,13.32
2023-04-28T19:28:25.981Z,14.50
2023-04-28T19:30:54.064Z,11.90
2023-04-28T19:33:28.001Z,14.30
2023-04-28T19:35:55.176Z,14.05
2023-04-28T19:38:25.524Z,13.52
2023-04-28T19:41:01.057Z,13.18
2023-04-28T19:43:27.767Z,13.73
2023-04-28T19:45:54.311Z,14.10
2023-04-28T19:48:21.025Z,15.95
2023-04-28T19:50:47.519Z,14.18
2023-04-28T19:53:14.713Z,13.80
2023-04-28T19:55:41.305Z,12.52
2023-04-28T19:58:09.808Z,12.88
2023-04-28T20:00:36.675Z,12.52
2023-04-28T20:03:03.292Z,11.88
2023-04-28T20:05:29.959Z,14.30
2023-04-28T20:07:57.128Z,15.85
2023-04-28T20:10:24.901Z,19.55
2023-04-28T20:12:51.681Z,19.23
2023-04-28T20:15:18.579Z,17.65
2023-04-28T20:17:46.397Z,16.50
2023-04-28T20:20:13.730Z,16.85
2023-04-28T20:22:44.099Z,16.92
2023-04-28T20:25:13.395Z,18.67
2023-04-28T20:27:40.093Z,16.70
2023-04-28T20:30:07.957Z,18.88
2023-04-28T20:32:34.565Z,28.20
2023-04-28T20:35:01.972Z,19.00
2023-04-28T20:37:30.165Z,19.30
2023-04-28T20:39:56.969Z,18.25
2023-04-28T20:42:23.524Z,15.85
2023-04-28T20:44:50.890Z,16.13
2023-04-28T20:47:18.415Z,16.42
2023-04-28T20:49:45.016Z,18.13
2023-04-28T20:52:11.509Z,21.25
2023-04-28T20:54:39.811Z,31.15
2023-04-28T20:57:06.705Z,29.92
2023-04-28T20:59:33.268Z,21.08
2023-04-28T21:02:00.496Z,17.27
2023-04-28T21:04:28.328Z,17.13
2023-04-28T21:06:55.603Z,14.57
2023-04-28T21:09:25.020Z,15.90
2023-04-28T21:11:51.879Z,14.43
2023-04-28T21:14:18.439Z,16.38
2023-04-28T21:16:45.036Z,17.48
2023-04-28T21:19:11.654Z,16.30
2023-04-28T21:21:40.273Z,16.10
2023-04-28T21:24:08.110Z,15.75
2023-04-28T21:26:35.832Z,14.30
2023-04-28T21:29:02.796Z,15.57
2023-04-28T21:31:30.651Z,18.70
2023-04-28T21:33:57.633Z,19.48
2023-04-28T21:36:24.190Z,18.00
2023-04-28T21:38:50.808Z,16.20
2023-04-28T21:41:17.297Z,19.95
2023-04-28T21:43:43.848Z,15.02
2023-04-28T21:46:11.493Z,15.20
2023-04-28T21:48:38.628Z,16.17
2023-04-28T21:51:05.336Z,13.98
2023-04-28T21:53:31.953Z,18.65
2023-04-28T21:55:58.508Z,19.38
2023-04-28T21:58:25.225Z,20.40
2023-04-28T22:00:52.298Z,18.77
2023-04-28T22:03:19.087Z,19.35
2023-04-28T22:05:45.981Z,20.30
2023-04-28T22:08:17.110Z,16.60
2023-04-28T22:10:45.756Z,17.17
2023-04-28T22:13:13.311Z,16.17
2023-04-28T22:15:40.140Z,17.35
2023-04-28T22:18:07.967Z,14.50
2023-04-28T22:20:34.711Z,15.18
2023-04-28T22:23:01.271Z,19.30
2023-04-28T22:25:27.767Z,18.58
2023-04-28T22:27:54.282Z,17.42
2023-04-28T22:30:21.242Z,17.88
2023-04-28T22:32:48.822Z,17.75
2023-04-28T22:35:16.771Z,16.88
2023-04-28T22:37:43.634Z,16.38
2023-04-28T22:40:10.988Z,16.33
2023-04-28T22:42:39.025Z,16.00
2023-04-28T22:45:06.691Z,17.92
2023-04-28T22:47:34.549Z,17.42
2023-04-28T22:50:03.635Z,12.70
2023-04-28T22:52:30.209Z,10.32
2023-04-28T22:54:56.804Z,10.50
2023-04-28T22:57:23.336Z,10.15
2023-04-28T22:59:50.430Z,8.93
2023-04-28T23:02:17.354Z,12.35
2023-04-28T23:04:44.021Z,14.07
2023-04-28T23:07:12.752Z,10.30
2023-04-28T23:09:39.319Z,10.05
2023-04-28T23:12:07.258Z,9.82
2023-04-28T23:14:33.921Z,9.70
2023-04-28T23:17:00.459Z,11.32
2023-04-28T23:19:27.014Z,11.02
2023-04-28T23:21:54.484Z,11.30
2023-04-28T23:24:21.976Z,9.25
2023-04-28T23:26:48.515Z,9.73
2023-04-28T23:29:15.035Z,10.35
2023-04-28T23:31:41.647Z,12.38
2023-04-28T23:34:08.837Z,9.35
2023-04-28T23:36:36.500Z,13.77
2023-04-28T23:39:03.444Z,11.48
2023-04-28T23:41:29.990Z,10.80
2023-04-28T23:43:56.872Z,8.98
2023-04-28T23:46:23.900Z,10.93
2023-04-28T23:48:50.916Z,8.70
2023-04-28T23:51:17.410Z,8.85
2023-04-28T23:53:44.205Z,8.43
2023-04-28T23:56:10.721Z,8.68
2023-04-28T23:58:37.901Z,8.10
